Time;durP1;ratioP1;P1;durP2;ratioP2;P2;SDS_P1;SDS_P2;PMS_P1;PMS_P2;Temp;Humidity;BMP_temperature;BMP_pressure;BME280_temperature;BME280_humidity;BME280_pressure;Samples;Min_cycle;Max_cycle;Signal;HPM_P1;HPM_P2
2021/01/18 00:02:01;;;;;;;12.82;3.72;;;4.30;99.90;;;;;;5089447;28;20035;-70
2021/01/18 00:04:27;;;;;;;14.82;4.13;;;4.30;99.90;;;;;;5087835;28;20032;-69
2021/01/18 00:06:52;;;;;;;19.42;4.30;;;4.20;99.90;;;;;;5089405;28;20026;-69
2021/01/18 00:09:18;;;;;;;27.40;5.07;;;4.30;99.90;;;;;;5088800;28;20036;-69
2021/01/18 00:11:46;;;;;;;18.17;3.47;;;4.30;99.90;;;;;;5088281;28;20404;-70
2021/01/18 00:14:13;;;;;;;24.92;4.68;;;4.30;99.90;;;;;;5089009;28;20048;-68
2021/01/18 00:16:39;;;;;;;19.35;4.22;;;4.30;99.90;;;;;;5070053;28;20013;-69
2021/01/18 00:19:04;;;;;;;17.15;3.80;;;4.30;99.90;;;;;;5088474;28;20024;-70
2021/01/18 00:21:31;;;;;;;17.23;4.97;;;4.20;99.90;;;;;;5070988;28;21179;-67
2021/01/18 00:23:56;;;;;;;23.95;4.30;;;4.20;99.90;;;;;;5088643;28;20032;-68
2021/01/18 00:26:22;;;;;;;16.77;4.53;;;4.20;99.90;;;;;;5088091;28;20024;-69
2021/01/18 00:28:47;;;;;;;23.38;4.00;;;4.20;99.90;;;;;;5088531;28;20036;-70
2021/01/18 00:31:13;;;;;;;18.13;4.22;;;4.20;99.90;;;;;;5088100;28;20024;-71
2021/01/18 00:33:38;;;;;;;18.30;4.40;;;4.20;99.90;;;;;;5088750;28;20388;-69
2021/01/18 00:36:07;;;;;;;9.52;4.05;;;4.20;99.90;;;;;;5088019;28;20067;-69
2021/01/18 00:38:33;;;;;;;15.30;3.97;;;4.20;99.90;;;;;;5088545;28;20126;-69
2021/01/18 00:40:59;;;;;;;20.23;4.25;;;4.20;99.90;;;;;;5082358;28;20028;-68
2021/01/18 00:43:24;;;;;;;21.40;4.55;;;4.20;99.90;;;;;;5087876;28;20483;-68
2021/01/18 00:45:50;;;;;;;15.68;4.13;;;4.20;99.90;;;;;;5088011;28;20021;-68
2021/01/18 00:48:17;;;;;;;26.50;4.50;;;4.20;99.90;;;;;;5087735;28;20040;-68
2021/01/18 00:50:42;;;;;;;21.85;4.78;;;4.10;99.90;;;;;;5066194;28;20034;-69
2021/01/18 00:53:08;;;;;;;24.77;4.40;;;4.10;99.90;;;;;;5088990;28;20107;-70
2021/01/18 00:55:33;;;;;;;14.95;5.03;;;4.10;99.90;;;;;;5086860;28;20020;-69
2021/01/18 00:57:59;;;;;;;16.73;4.30;;;4.10;99.90;;;;;;5070463;28;20513;-67
2021/01/18 01:00:26;;;;;;;18.77;4.07;;;4.00;99.90;;;;;;5087756;28;20030;-69
2021/01/18 01:02:52;;;;;;;18.63;4.53;;;4.00;99.90;;;;;;5087752;28;20047;-66
2021/01/18 01:05:23;;;;;;;19.33;3.78;;;4.10;99.90;;;;;;5087576;28;20031;-65
2021/01/18 01:07:52;;;;;;;14.38;4.00;;;4.20;99.90;;;;;;5087642;28;20032;-68
2021/01/18 01:10:35;;;;;;;19.02;4.13;;;4.10;99.90;;;;;;5086920;28;20027;-69
2021/01/18 01:13:03;;;;;;;18.77;3.90;;;4.10;99.90;;;;;;5088728;28;20075;-67
2021/01/18 01:15:29;;;;;;;15.95;4.18;;;4.10;99.90;;;;;;5087191;28;20097;-68
2021/01/18 01:17:55;;;;;;;16.95;4.60;;;4.10;99.90;;;;;;5088060;28;20095;-68
2021/01/18 01:20:22;;;;;;;18.40;4.43;;;4.20;99.90;;;;;;5068133;28;20059;-68
2021/01/18 01:22:48;;;;;;;26.95;5.38;;;4.10;99.90;;;;;;5087317;28;20103;-68
2021/01/18 01:25:16;;;;;;;20.92;5.13;;;4.10;99.90;;;;;;5084990;28;20115;-68
2021/01/18 01:27:42;;;;;;;29.83;5.03;;;4.10;99.90;;;;;;5079661;28;20035;-67
2021/01/18 01:30:13;;;;;;;19.08;4.72;;;4.10;99.90;;;;;;5063408;28;20111;-68
2021/01/18 01:32:40;;;;;;;29.30;5.13;;;4.10;99.90;;;;;;5074472;28;20020;-68
2021/01/18 01:35:07;;;;;;;17.92;5.03;;;4.10;99.90;;;;;;5075095;28;20028;-67
2021/01/18 01:37:33;;;;;;;25.17;5.43;;;4.10;99.90;;;;;;5069028;28;20103;-68
2021/01/18 01:39:59;;;;;;;35.60;5.45;;;4.20;99.90;;;;;;5087391;28;20028;-68
2021/01/18 01:42:24;;;;;;;23.48;5.40;;;4.20;99.90;;;;;;5084809;28;20036;-68
2021/01/18 01:44:51;;;;;;;15.25;4.55;;;4.10;99.90;;;;;;5088213;28;20028;-69
2021/01/18 01:47:23;;;;;;;20.35;4.50;;;4.20;99.90;;;;;;5086013;28;20067;-68
2021/01/18 01:49:49;;;;;;;23.88;5.25;;;4.20;99.90;;;;;;5052892;28;20035;-67
2021/01/18 01:52:15;;;;;;;25.02;4.50;;;4.20;99.90;;;;;;5077742;28;20020;-69
2021/01/18 01:54:42;;;;;;;27.80;5.75;;;4.20;99.90;;;;;;5087700;28;20077;-67
2021/01/18 01:57:08;;;;;;;17.70;4.68;;;4.20;99.90;;;;;;5080883;28;20035;-68
2021/01/18 01:59:33;;;;;;;32.58;6.00;;;4.20;99.90;;;;;;5089035;28;20024;-71
2021/01/18 02:01:59;;;;;;;13.13;4.95;;;4.20;99.90;;;;;;5072365;28;20123;-65
2021/01/18 02:04:27;;;;;;;19.70;5.47;;;4.10;99.90;;;;;;5073613;28;20031;-69
2021/01/18 02:06:52;;;;;;;25.20;5.38;;;4.10;99.90;;;;;;5073248;28;20027;-70
2021/01/18 02:09:18;;;;;;;22.42;4.57;;;4.20;99.90;;;;;;5090287;28;20031;-67
2021/01/18 02:11:43;;;;;;;21.88;5.18;;;4.10;99.90;;;;;;5085041;28;20025;-69
2021/01/18 02:14:31;;;;;;;19.67;4.80;;;4.10;99.90;;;;;;5071702;28;20131;-67
2021/01/18 02:17:09;;;;;;;21.88;5.10;;;4.10;99.90;;;;;;5078517;28;20031;-68
2021/01/18 02:20:25;;;;;;;16.67;4.05;;;4.10;99.90;;;;;;5089458;28;20079;-66
2021/01/18 02:23:25;;;;;;;22.73;5.10;;;4.10;99.90;;;;;;5085322;28;20028;-67
2021/01/18 02:25:56;;;;;;;22.33;5.25;;;4.20;99.90;;;;;;5073390;28;20259;-70
2021/01/18 02:28:44;;;;;;;23.67;4.65;;;4.20;99.90;;;;;;5090638;28;20032;-67
2021/01/18 02:31:36;;;;;;;27.33;4.78;;;4.20;99.90;;;;;;5090802;28;20539;-67
2021/01/18 02:34:12;;;;;;;16.70;4.70;;;4.10;99.90;;;;;;5091638;28;20024;-68
2021/01/18 02:37:02;;;;;;;18.10;4.60;;;4.20;99.90;;;;;;5091226;28;20028;-67
2021/01/18 02:39:48;;;;;;;30.35;5.82;;;4.20;99.90;;;;;;5089722;28;20039;-68
2021/01/18 02:42:24;;;;;;;22.30;4.75;;;4.20;99.90;;;;;;5109632;28;21360;-69
2021/01/18 02:44:51;;;;;;;25.92;4.97;;;4.20;99.90;;;;;;5104951;28;20042;-68
2021/01/18 02:47:19;;;;;;;23.33;4.90;;;4.30;99.90;;;;;;5082087;28;20032;-70
2021/01/18 02:49:49;;;;;;;16.52;5.53;;;4.30;99.90;;;;;;5087126;28;20032;-69
2021/01/18 02:52:16;;;;;;;25.83;6.43;;;4.40;99.90;;;;;;5074919;28;20026;-69
2021/01/18 02:54:41;;;;;;;26.27;5.32;;;4.40;99.90;;;;;;5077468;28;20020;-69
2021/01/18 02:57:14;;;;;;;17.75;4.13;;;4.50;99.90;;;;;;5086393;28;20528;-70
2021/01/18 02:59:41;;;;;;;18.83;4.25;;;4.50;99.90;;;;;;5082666;28;20074;-70
2021/01/18 03:02:51;;;;;;;31.25;5.55;;;4.40;99.90;;;;;;5078031;28;20616;-69
2021/01/18 03:05:40;;;;;;;21.85;6.10;;;4.40;99.90;;;;;;5089812;28;20472;-69
2021/01/18 03:08:41;;;;;;;15.70;5.05;;;4.40;99.90;;;;;;5079729;28;20072;-67
2021/01/18 03:11:13;;;;;;;22.05;5.30;;;4.50;99.90;;;;;;5066505;28;20538;-68
2021/01/18 03:13:46;;;;;;;35.15;5.50;;;4.40;99.90;;;;;;5077867;28;20103;-70
2021/01/18 03:16:20;;;;;;;17.48;5.47;;;4.40;99.90;;;;;;5089889;28;20020;-68
2021/01/18 03:18:49;;;;;;;24.42;4.85;;;4.40;99.90;;;;;;5089675;28;20544;-69
2021/01/18 03:21:16;;;;;;;34.60;6.07;;;4.40;99.90;;;;;;5090489;28;20054;-69
2021/01/18 03:23:42;;;;;;;26.50;6.18;;;4.40;99.90;;;;;;5077628;28;20039;-68
2021/01/18 03:26:08;;;;;;;23.58;5.63;;;4.40;99.90;;;;;;5085101;28;20016;-66
2021/01/18 03:28:34;;;;;;;32.88;6.38;;;4.50;99.90;;;;;;5090671;28;20086;-66
2021/01/18 03:30:59;;;;;;;28.90;6.35;;;4.50;99.90;;;;;;5080693;28;20028;-67
2021/01/18 03:33:26;;;;;;;23.40;6.32;;;4.60;99.90;;;;;;5083414;28;20429;-69
2021/01/18 03:35:55;;;;;;;21.92;5.40;;;4.60;99.90;;;;;;5080312;28;20023;-66
2021/01/18 03:38:21;;;;;;;31.90;6.75;;;4.50;99.90;;;;;;5076965;28;20552;-70
2021/01/18 03:40:48;;;;;;;22.60;5.80;;;4.50;99.90;;;;;;5077281;28;20485;-69
2021/01/18 03:43:13;;;;;;;21.85;7.38;;;4.50;99.90;;;;;;5082347;28;20488;-69
2021/01/18 03:45:40;;;;;;;25.98;6.95;;;4.50;99.90;;;;;;5073416;28;20032;-71
2021/01/18 03:48:08;;;;;;;18.13;5.43;;;4.50;99.90;;;;;;5089805;28;20726;-67
2021/01/18 03:50:35;;;;;;;24.48;5.75;;;4.50;99.90;;;;;;5084823;28;20032;-68
2021/01/18 03:53:00;;;;;;;29.50;7.00;;;4.60;99.90;;;;;;5089131;28;20055;-66
2021/01/18 03:55:26;;;;;;;22.98;6.60;;;4.50;99.90;;;;;;5083507;28;20070;-69
2021/01/18 03:57:54;;;;;;;30.90;6.85;;;4.50;99.90;;;;;;5080755;28;20461;-68
2021/01/18 04:00:25;;;;;;;31.25;6.88;;;4.50;99.90;;;;;;5083356;28;20461;-67
2021/01/18 04:02:51;;;;;;;26.75;6.25;;;4.50;99.90;;;;;;5089337;28;20086;-69
2021/01/18 04:05:18;;;;;;;34.30;6.88;;;4.50;99.90;;;;;;5083773;28;20032;-68
2021/01/18 04:07:44;;;;;;;33.17;7.57;;;4.50;99.90;;;;;;5081020;28;20086;-68
2021/01/18 04:10:11;;;;;;;29.67;6.82;;;4.50;99.90;;;;;;5088851;28;20115;-70
2021/01/18 04:12:41;;;;;;;28.02;7.65;;;4.50;99.90;;;;;;5085881;28;20039;-66
2021/01/18 04:15:07;;;;;;;27.63;7.60;;;4.60;99.90;;;;;;5082409;28;20031;-68
2021/01/18 04:17:33;;;;;;;43.75;9.10;;;4.60;99.90;;;;;;5086625;28;20124;-69
2021/01/18 04:19:59;;;;;;;38.95;8.60;;;4.60;99.90;;;;;;5089244;28;20119;-67
2021/01/18 04:22:24;;;;;;;29.33;8.75;;;4.50;99.90;;;;;;5076518;28;20473;-68
2021/01/18 04:24:50;;;;;;;29.70;7.45;;;4.50;99.90;;;;;;5081213;28;20032;-68
2021/01/18 04:27:15;;;;;;;26.02;7.43;;;4.50;99.90;;;;;;5088601;28;20031;-67
2021/01/18 04:29:41;;;;;;;34.65;8.93;;;4.50;99.90;;;;;;5083422;28;20233;-68
2021/01/18 04:32:06;;;;;;;32.50;8.43;;;4.50;99.90;;;;;;5081331;28;20020;-67
2021/01/18 04:34:32;;;;;;;30.80;8.82;;;4.50;99.90;;;;;;5088076;28;20020;-68
2021/01/18 04:37:00;;;;;;;24.85;8.30;;;4.60;99.90;;;;;;5087856;28;20154;-70
2021/01/18 04:39:26;;;;;;;36.00;8.40;;;4.50;99.90;;;;;;5082059;28;20033;-68
2021/01/18 04:41:51;;;;;;;27.50;9.30;;;4.50;99.90;;;;;;5088877;28;20020;-69
2021/01/18 04:44:17;;;;;;;37.50;9.07;;;4.50;99.90;;;;;;5087112;28;20050;-69
2021/01/18 04:46:45;;;;;;;37.03;8.82;;;4.40;99.90;;;;;;5087210;28;20020;-69
2021/01/18 04:49:13;;;;;;;43.88;9.13;;;4.30;99.90;;;;;;5088715;28;20043;-69
2021/01/18 04:51:48;;;;;;;38.50;9.05;;;4.40;99.90;;;;;;5074997;28;20028;-69
2021/01/18 04:54:20;;;;;;;30.75;8.20;;;4.50;99.90;;;;;;5066063;28;20029;-69
2021/01/18 04:57:14;;;;;;;40.75;9.52;;;4.40;99.90;;;;;;5069244;28;20051;-68
2021/01/18 04:59:54;;;;;;;32.22;9.10;;;4.50;99.90;;;;;;5087278;28;20049;-69
2021/01/18 05:02:22;;;;;;;38.70;7.72;;;4.40;99.90;;;;;;5083399;28;20123;-67
2021/01/18 05:04:52;;;;;;;28.77;9.07;;;4.40;99.90;;;;;;5087242;28;20027;-68
2021/01/18 05:07:32;;;;;;;36.55;9.27;;;4.40;99.90;;;;;;5086526;28;20050;-68
2021/01/18 05:10:04;;;;;;;35.97;8.55;;;4.40;99.90;;;;;;5088205;28;20035;-69
2021/01/18 05:12:31;;;;;;;30.80;8.80;;;4.30;99.90;;;;;;5086686;28;20723;-71
2021/01/18 05:14:59;;;;;;;37.58;8.10;;;4.40;99.90;;;;;;5088335;28;20050;-68
2021/01/18 05:17:42;;;;;;;27.48;7.22;;;4.40;99.90;;;;;;5099454;28;20101;-66
2021/01/18 05:20:12;;;;;;;37.95;8.63;;;4.30;99.90;;;;;;5080894;28;20028;-69
2021/01/18 05:22:58;;;;;;;33.75;8.55;;;4.30;99.90;;;;;;5078181;28;20038;-70
2021/01/18 05:25:23;;;;;;;38.70;9.25;;;4.30;99.90;;;;;;5080901;28;20032;-67
2021/01/18 05:28:01;;;;;;;41.38;9.85;;;4.20;99.90;;;;;;5072418;28;20650;-70
2021/01/18 05:30:28;;;;;;;32.35;9.00;;;4.20;99.90;;;;;;5079455;28;20104;-69
2021/01/18 05:33:11;;;;;;;38.83;9.75;;;4.20;99.90;;;;;;5087552;28;20051;-70
2021/01/18 05:35:38;;;;;;;;;;;4.20;99.90;;;;;;5086772;28;20389;-69
2021/01/18 05:38:10;;;;;;;29.73;8.60;;;4.20;99.90;;;;;;5082832;28;20003;-69
2021/01/18 05:40:44;;;;;;;35.83;8.43;;;4.20;99.90;;;;;;5082766;28;20060;-69
2021/01/18 05:43:10;;;;;;;39.55;9.32;;;4.20;99.90;;;;;;5076952;28;20035;-67
2021/01/18 05:45:40;;;;;;;40.45;9.75;;;4.30;99.90;;;;;;5080798;28;20074;-69
2021/01/18 05:48:07;;;;;;;32.80;8.63;;;4.30;99.90;;;;;;5084730;28;20051;-69
2021/01/18 05:50:35;;;;;;;31.15;9.60;;;4.30;99.90;;;;;;5097427;28;20032;-68
2021/01/18 05:53:21;;;;;;;43.50;9.45;;;4.20;99.90;;;;;;5093743;28;20039;-66
2021/01/18 05:55:47;;;;;;;41.38;9.95;;;4.30;99.90;;;;;;5089330;28;20032;-68
2021/01/18 05:58:30;;;;;;;44.70;10.82;;;4.30;99.90;;;;;;5085446;28;20501;-67
2021/01/18 06:00:57;;;;;;;29.70;8.93;;;4.30;99.90;;;;;;5085655;28;20036;-65
2021/01/18 06:03:30;;;;;;;24.65;8.80;;;4.30;99.90;;;;;;5097210;28;20110;-68
2021/01/18 06:05:56;;;;;;;43.95;9.75;;;4.30;99.90;;;;;;5088879;28;20119;-67
2021/01/18 06:08:24;;;;;;;43.50;8.88;;;4.40;99.90;;;;;;5072201;28;20105;-66
2021/01/18 06:10:55;;;;;;;37.28;10.35;;;4.40;99.90;;;;;;5087141;28;20028;-66
2021/01/18 06:13:25;;;;;;;33.95;8.75;;;4.30;99.90;;;;;;5087740;28;20079;-67
2021/01/18 06:16:02;;;;;;;39.38;9.82;;;4.30;99.90;;;;;;5089164;28;20028;-68
2021/01/18 06:18:34;;;;;;;27.33;8.27;;;4.30;99.90;;;;;;5086572;28;20096;-67
2021/01/18 06:21:03;;;;;;;39.55;10.27;;;4.30;99.90;;;;;;5089567;28;20032;-68
2021/01/18 06:23:29;;;;;;;39.58;8.63;;;4.30;99.90;;;;;;5089624;28;20043;-67
2021/01/18 06:25:56;;;;;;;27.15;8.20;;;4.30;99.90;;;;;;5088259;28;20029;-66
2021/01/18 06:28:24;;;;;;;30.25;8.70;;;4.30;99.90;;;;;;5089912;28;20084;-67
2021/01/18 06:30:54;;;;;;;33.65;8.23;;;4.30;99.90;;;;;;5086538;28;20024;-67
2021/01/18 06:33:20;;;;;;;30.45;9.02;;;4.40;99.90;;;;;;5084785;28;20020;-66
2021/01/18 06:35:46;;;;;;;39.45;8.50;;;4.40;99.90;;;;;;5089001;28;20024;-67
2021/01/18 06:38:20;;;;;;;34.05;9.23;;;4.30;99.90;;;;;;5089664;28;20139;-67
2021/01/18 06:40:58;;;;;;;39.65;7.95;;;4.40;99.90;;;;;;5090944;28;20025;-66
2021/01/18 06:43:23;;;;;;;34.97;8.68;;;4.40;99.90;;;;;;5089930;28;20020;-66
2021/01/18 06:45:49;;;;;;;37.70;8.65;;;4.40;99.90;;;;;;5085933;28;20034;-66
2021/01/18 06:48:15;;;;;;;39.88;8.00;;;4.40;99.90;;;;;;5086342;28;20040;-66
2021/01/18 06:50:41;;;;;;;31.27;7.88;;;4.40;99.90;;;;;;5085216;28;20122;-68
2021/01/18 06:53:23;;;;;;;34.00;8.52;;;4.40;99.90;;;;;;5091664;28;20020;-66
2021/01/18 06:56:02;;;;;;;;;;;4.50;99.90;;;;;;5090422;28;20489;-66
2021/01/18 06:58:45;;;;;;;32.67;8.25;;;4.50;99.90;;;;;;5084831;28;20331;-66
2021/01/18 07:01:13;;;;;;;;;;;4.50;99.90;;;;;;5067921;28;20082;-64
2021/01/18 07:03:41;;;;;;;28.17;8.68;;;4.50;99.90;;;;;;5080118;28;19912;-68
2021/01/18 07:06:29;;;;;;;37.88;8.93;;;4.60;99.90;;;;;;5088952;28;20739;-66
2021/01/18 07:08:58;;;;;;;34.20;9.30;;;4.60;99.90;;;;;;5062607;28;20378;-66
2021/01/18 07:11:24;;;;;;;35.85;8.77;;;4.50;99.90;;;;;;5088330;28;20084;-68
2021/01/18 07:13:50;;;;;;;33.22;8.57;;;4.50;99.90;;;;;;5083714;28;20128;-67
2021/01/18 07:16:20;;;;;;;34.58;9.60;;;4.50;99.90;;;;;;5080302;28;20044;-68
2021/01/18 07:18:56;;;;;;;23.15;8.45;;;4.60;99.90;;;;;;5080720;28;20036;-70
2021/01/18 07:21:26;;;;;;;25.73;8.55;;;4.60;99.90;;;;;;5094576;28;20024;-70
2021/01/18 07:24:00;;;;;;;36.08;9.55;;;4.50;99.90;;;;;;5066243;28;20050;-67
2021/01/18 07:26:56;;;;;;;36.67;10.20;;;4.50;99.90;;;;;;5087829;28;20148;-68
2021/01/18 07:29:26;;;;;;;30.58;9.40;;;4.50;99.90;;;;;;5103171;28;20051;-68
2021/01/18 07:31:54;;;;;;;39.08;10.48;;;4.50;99.90;;;;;;5089097;28;20020;-67
2021/01/18 07:34:21;;;;;;;41.47;12.52;;;4.50;99.90;;;;;;5089991;28;20461;-67
2021/01/18 07:36:48;;;;;;;39.00;8.95;;;4.40;99.90;;;;;;5089701;28;20031;-67
2021/01/18 07:39:31;;;;;;;43.17;9.63;;;4.40;99.90;;;;;;5085089;28;20132;-67
2021/01/18 07:41:57;;;;;;;42.28;9.55;;;4.40;99.90;;;;;;5071706;28;20013;-67
2021/01/18 07:44:45;;;;;;;30.63;9.57;;;4.40;99.90;;;;;;5082843;28;20034;-67
2021/01/18 07:47:14;;;;;;;36.35;9.88;;;4.40;99.90;;;;;;5089108;28;20104;-68
2021/01/18 07:49:39;;;;;;;42.95;9.13;;;4.40;99.90;;;;;;5088614;28;20024;-68
2021/01/18 07:52:16;;;;;;;34.90;7.53;;;4.50;99.90;;;;;;5089905;28;20046;-68
2021/01/18 07:54:41;;;;;;;32.95;8.27;;;4.50;99.90;;;;;;5069355;28;20054;-68
2021/01/18 07:57:26;;;;;;;41.17;8.60;;;4.50;99.90;;;;;;5094724;28;20024;-69
2021/01/18 08:00:17;;;;;;;31.77;7.78;;;4.50;99.90;;;;;;5078482;28;20095;-71
2021/01/18 08:02:54;;;;;;;25.38;8.55;;;4.50;99.90;;;;;;5068824;28;20101;-68
2021/01/18 08:05:20;;;;;;;34.78;8.65;;;4.60;99.90;;;;;;5084173;28;20026;-68
2021/01/18 08:08:17;;;;;;;32.10;7.88;;;4.60;99.90;;;;;;5083168;28;20029;-67
2021/01/18 08:10:48;;;;;;;35.83;7.25;;;4.60;99.90;;;;;;5089225;28;20024;-68
2021/01/18 08:13:50;;;;;;;33.20;9.63;;;4.70;99.90;;;;;;5076801;28;20094;-69
2021/01/18 08:16:40;;;;;;;28.67;7.35;;;4.70;99.90;;;;;;4979778;28;20808;-68
2021/01/18 08:19:19;;;;;;;32.17;7.13;;;4.60;99.90;;;;;;5080594;28;20123;-68
2021/01/18 08:21:46;;;;;;;30.67;8.18;;;4.70;99.90;;;;;;5089136;28;20032;-68
2021/01/18 08:24:27;;;;;;;24.13;6.72;;;4.70;99.90;;;;;;5088580;28;20019;-69
2021/01/18 08:27:01;;;;;;;32.33;7.85;;;4.70;99.90;;;;;;5089085;28;20028;-68
2021/01/18 08:29:38;;;;;;;29.55;7.45;;;4.70;99.90;;;;;;5070193;28;20109;-69
2021/01/18 08:32:33;;;;;;;29.42;8.20;;;4.70;99.90;;;;;;5084507;28;20039;-68
2021/01/18 08:35:03;;;;;;;23.80;7.25;;;4.70;99.90;;;;;;5073094;28;20100;-66
2021/01/18 08:37:32;;;;;;;20.30;7.93;;;4.80;99.90;;;;;;5081406;28;20020;-68
2021/01/18 08:40:13;;;;;;;25.10;6.85;;;4.80;99.90;;;;;;5079072;28;20119;-67
2021/01/18 08:42:40;;;;;;;25.45;6.85;;;4.80;99.90;;;;;;5084501;28;20016;-70
2021/01/18 08:45:06;;;;;;;28.65;8.38;;;4.80;99.90;;;;;;5088689;28;20016;-69
2021/01/18 08:47:42;;;;;;;19.02;6.30;;;4.80;99.90;;;;;;5084229;28;20028;-67
2021/01/18 08:50:25;;;;;;;36.03;9.20;;;4.90;99.90;;;;;;5075735;28;20058;-67
2021/01/18 08:52:57;;;;;;;33.70;7.68;;;4.80;99.90;;;;;;5086801;28;20031;-67
2021/01/18 08:55:29;;;;;;;31.02;7.07;;;4.80;99.90;;;;;;5088712;28;20034;-69
2021/01/18 08:58:01;;;;;;;23.38;6.90;;;4.80;99.90;;;;;;5074450;28;20016;-69
2021/01/18 09:00:46;;;;;;;;;;;4.90;99.90;;;;;;5092351;28;20038;-67
2021/01/18 09:03:20;;;;;;;23.52;7.15;;;4.80;99.90;;;;;;5095885;28;19961;-68
2021/01/18 09:05:46;;;;;;;20.30;6.43;;;4.90;99.90;;;;;;5077146;28;20046;-67
2021/01/18 09:08:14;;;;;;;34.10;7.82;;;4.90;99.90;;;;;;5076096;28;20090;-69
2021/01/18 09:10:40;;;;;;;22.17;7.38;;;5.00;99.90;;;;;;5067070;28;20856;-68
2021/01/18 09:13:07;;;;;;;21.65;7.07;;;4.90;99.90;;;;;;5086578;28;20040;-69
2021/01/18 09:15:35;;;;;;;26.45;6.82;;;4.90;99.90;;;;;;5086536;28;20335;-68
2021/01/18 09:18:11;;;;;;;26.92;7.10;;;5.00;99.90;;;;;;5091986;28;20016;-65
2021/01/18 09:20:46;;;;;;;22.50;7.43;;;5.00;99.90;;;;;;5090941;28;20116;-68
2021/01/18 09:23:13;;;;;;;28.17;6.97;;;5.00;99.90;;;;;;5092086;28;20378;-67
2021/01/18 09:25:39;;;;;;;32.08;6.93;;;5.00;99.90;;;;;;5082600;28;20067;-69
2021/01/18 09:28:06;;;;;;;23.70;7.03;;;5.00;99.90;;;;;;5068358;28;20071;-68
2021/01/18 09:30:32;;;;;;;26.98;6.65;;;5.10;99.90;;;;;;5086496;28;20062;-67
2021/01/18 09:33:07;;;;;;;24.02;6.70;;;5.10;99.90;;;;;;5082962;28;20032;-68
2021/01/18 09:35:37;;;;;;;30.20;7.47;;;5.10;99.90;;;;;;5085632;28;20286;-67
2021/01/18 09:38:05;;;;;;;26.58;7.47;;;5.20;99.90;;;;;;5076101;28;20028;-67
2021/01/18 09:40:32;;;;;;;26.02;7.15;;;5.10;99.90;;;;;;5084657;28;20028;-68
2021/01/18 09:42:58;;;;;;;22.88;7.03;;;5.10;99.90;;;;;;5089180;28;20032;-68
2021/01/18 09:45:26;;;;;;;30.40;7.50;;;5.10;99.90;;;;;;5085251;28;20124;-68
2021/01/18 09:47:53;;;;;;;24.27;6.13;;;5.20;99.90;;;;;;5094697;28;20040;-67
2021/01/18 09:50:20;;;;;;;24.92;6.97;;;5.20;99.90;;;;;;5087495;28;20012;-69
2021/01/18 09:52:52;;;;;;;22.95;7.80;;;5.30;99.90;;;;;;5094931;28;20081;-69
2021/01/18 09:55:31;;;;;;;29.80;7.20;;;5.20;99.90;;;;;;5056003;28;20408;-67
2021/01/18 09:58:20;;;;;;;24.23;6.85;;;5.30;99.90;;;;;;5072790;28;20309;-69
2021/01/18 10:00:49;;;;;;;21.92;7.18;;;5.30;99.90;;;;;;5091755;28;20027;-66
2021/01/18 10:03:30;;;;;;;32.75;6.47;;;5.30;99.90;;;;;;5087237;28;20027;-69
2021/01/18 10:06:12;;;;;;;23.27;7.05;;;5.40;99.90;;;;;;5067522;28;20024;-68
2021/01/18 10:08:45;;;;;;;25.20;6.70;;;5.40;99.90;;;;;;5084228;28;20039;-68
2021/01/18 10:11:13;;;;;;;20.75;6.93;;;5.40;99.90;;;;;;5090480;28;20034;-68
2021/01/18 10:13:39;;;;;;;26.65;6.13;;;5.40;99.90;;;;;;5085298;28;20058;-67
2021/01/18 10:16:14;;;;;;;26.60;6.70;;;5.50;99.90;;;;;;5076154;28;20381;-69
2021/01/18 10:18:44;;;;;;;27.73;6.68;;;5.40;99.90;;;;;;5073027;28;20074;-69
2021/01/18 10:21:11;;;;;;;22.42;5.90;;;5.40;99.90;;;;;;5071197;28;20028;-69
2021/01/18 10:23:39;;;;;;;26.90;5.75;;;5.50;99.90;;;;;;5088857;28;20067;-68
2021/01/18 10:26:17;;;;;;;15.25;5.05;;;5.50;99.90;;;;;;5085764;28;20024;-67
2021/01/18 10:28:58;;;;;;;23.67;6.10;;;5.50;99.90;;;;;;5086893;28;20028;-67
2021/01/18 10:31:28;;;;;;;23.80;5.78;;;5.60;99.90;;;;;;5081740;28;20137;-65
2021/01/18 10:34:15;;;;;;;23.65;5.40;;;5.70;99.90;;;;;;5080037;28;20032;-67
2021/01/18 10:36:45;;;;;;;22.77;4.93;;;5.70;99.90;;;;;;5088266;28;20020;-68
2021/01/18 10:39:28;;;;;;;16.45;5.07;;;5.80;99.90;;;;;;5099956;28;20468;-66
2021/01/18 10:42:02;;;;;;;27.88;5.47;;;5.80;99.90;;;;;;5091766;28;20036;-69
2021/01/18 10:44:29;;;;;;;25.45;5.15;;;5.90;99.90;;;;;;5086542;28;20031;-69
2021/01/18 10:46:54;;;;;;;19.65;4.57;;;5.90;99.90;;;;;;5089747;28;20584;-68
2021/01/18 10:49:27;;;;;;;22.55;5.22;;;5.90;99.90;;;;;;5057900;28;20496;-71
2021/01/18 10:52:04;;;;;;;19.15;4.68;;;5.90;99.90;;;;;;5084571;28;20057;-69
2021/01/18 10:54:30;;;;;;;27.67;4.90;;;5.90;99.90;;;;;;5074582;28;20048;-66
2021/01/18 10:56:57;;;;;;;23.42;4.65;;;5.90;99.90;;;;;;5080736;28;20055;-70
2021/01/18 10:59:23;;;;;;;19.98;5.20;;;6.00;99.90;;;;;;5066473;28;20069;-73
2021/01/18 11:02:07;;;;;;;30.35;5.05;;;6.00;99.90;;;;;;5100181;28;20020;-68
2021/01/18 11:04:35;;;;;;;17.58;4.38;;;6.00;99.90;;;;;;5090765;28;20028;-67
2021/01/18 11:07:02;;;;;;;23.02;6.75;;;6.00;99.90;;;;;;5080599;28;20055;-68
2021/01/18 11:09:34;;;;;;;21.88;3.92;;;6.00;99.90;;;;;;5086250;28;20051;-69
2021/01/18 11:12:01;;;;;;;15.20;3.65;;;6.00;99.90;;;;;;5086656;28;20020;-68
2021/01/18 11:14:27;;;;;;;23.00;4.60;;;6.10;99.90;;;;;;5082743;28;20027;-68
2021/01/18 11:17:06;;;;;;;16.83;5.50;;;6.10;99.90;;;;;;5090682;28;20465;-67
2021/01/18 11:19:32;;;;;;;19.30;4.57;;;6.10;99.90;;;;;;5101461;28;20024;-67
2021/01/18 11:21:59;;;;;;;30.27;5.20;;;6.10;99.90;;;;;;5079116;28;20243;-66
2021/01/18 11:24:25;;;;;;;21.35;5.35;;;6.10;99.90;;;;;;5072385;28;20017;-67
2021/01/18 11:26:52;;;;;;;30.25;4.43;;;6.20;99.90;;;;;;5082293;28;20049;-69
2021/01/18 11:29:18;;;;;;;19.88;4.88;;;6.20;99.90;;;;;;5087399;28;20043;-68
2021/01/18 11:31:45;;;;;;;22.05;4.15;;;6.20;99.90;;;;;;5079395;28;20024;-67
2021/01/18 11:34:12;;;;;;;24.13;5.25;;;6.20;99.90;;;;;;5089089;28;20031;-67
2021/01/18 11:36:39;;;;;;;18.05;4.10;;;6.10;99.90;;;;;;5089114;28;20020;-67
2021/01/18 11:39:08;;;;;;;27.67;4.60;;;6.10;99.90;;;;;;5058442;28;20060;-68
2021/01/18 11:41:34;;;;;;;19.10;4.57;;;6.20;99.90;;;;;;5071875;28;20026;-68
2021/01/18 11:44:02;;;;;;;17.25;3.70;;;6.20;99.90;;;;;;5071990;28;20025;-67
2021/01/18 11:46:27;;;;;;;22.67;4.03;;;6.20;99.90;;;;;;5072202;28;20363;-67
2021/01/18 11:48:53;;;;;;;17.23;3.60;;;6.20;99.90;;;;;;5071057;28;20486;-68
2021/01/18 11:51:18;;;;;;;28.83;4.70;;;6.30;99.90;;;;;;5087265;28;20029;-68
2021/01/18 11:53:46;;;;;;;24.65;3.88;;;6.40;99.90;;;;;;5091655;28;20039;-68
2021/01/18 11:56:12;;;;;;;21.25;4.47;;;6.40;99.90;;;;;;5090717;28;20407;-69
2021/01/18 11:58:38;;;;;;;19.63;3.00;;;6.50;99.90;;;;;;5092111;28;20083;-67
2021/01/18 12:01:03;;;;;;;23.52;3.42;;;6.50;99.90;;;;;;5080831;28;20057;-66
2021/01/18 12:03:29;;;;;;;25.27;4.15;;;6.50;99.90;;;;;;5078934;28;20472;-67
2021/01/18 12:05:54;;;;;;;24.02;3.45;;;6.50;99.90;;;;;;5091033;28;20500;-68
2021/01/18 12:08:20;;;;;;;25.95;4.03;;;6.50;99.90;;;;;;5077026;28;20037;-68
2021/01/18 12:10:45;;;;;;;20.55;3.65;;;6.50;99.90;;;;;;5088938;28;20020;-67
2021/01/18 12:13:12;;;;;;;31.10;4.28;;;6.60;99.90;;;;;;5071031;28;20056;-67
2021/01/18 12:15:38;;;;;;;17.23;3.17;;;6.50;99.90;;;;;;5088934;28;20020;-66
2021/01/18 12:18:04;;;;;;;22.38;3.42;;;6.50;99.90;;;;;;5081288;28;20363;-68
2021/01/18 12:20:30;;;;;;;20.08;3.30;;;6.50;99.90;;;;;;5088697;28;20451;-69
2021/01/18 12:22:57;;;;;;;22.50;3.80;;;6.50;99.90;;;;;;5073141;28;20041;-66
2021/01/18 12:25:25;;;;;;;18.88;3.13;;;6.60;99.90;;;;;;5076801;28;20090;-68
2021/01/18 12:27:56;;;;;;;12.98;2.90;;;6.60;99.90;;;;;;5093741;28;20114;-67
2021/01/18 12:30:24;;;;;;;16.20;3.40;;;6.60;99.90;;;;;;5090633;28;20285;-68
2021/01/18 12:32:50;;;;;;;24.65;3.35;;;6.70;99.90;;;;;;5057419;28;20027;-67
2021/01/18 12:35:16;;;;;;;15.75;2.53;;;6.70;99.90;;;;;;5097612;28;20055;-68
2021/01/18 12:37:42;;;;;;;23.67;4.53;;;6.60;99.90;;;;;;5091500;28;20024;-67
2021/01/18 12:40:10;;;;;;;15.82;3.83;;;6.60;99.90;;;;;;5093110;28;20026;-67
2021/01/18 12:42:42;;;;;;;17.83;4.25;;;6.60;99.90;;;;;;5075700;28;20066;-68
2021/01/18 12:45:09;;;;;;;34.45;3.40;;;6.60;99.90;;;;;;5081322;28;20016;-69
2021/01/18 12:47:35;;;;;;;21.98;4.00;;;6.60;99.90;;;;;;5083171;28;21994;-68
2021/01/18 12:50:00;;;;;;;22.80;3.42;;;6.60;99.90;;;;;;5103051;28;20118;-67
2021/01/18 12:52:26;;;;;;;24.38;4.45;;;6.60;99.90;;;;;;5090848;28;20028;-67
2021/01/18 12:54:52;;;;;;;18.02;4.03;;;6.60;99.90;;;;;;5087825;28;20024;-67
2021/01/18 12:57:17;;;;;;;21.60;4.10;;;6.60;99.90;;;;;;5086074;28;20016;-67
2021/01/18 12:59:43;;;;;;;23.33;3.50;;;6.60;99.90;;;;;;5065332;28;20017;-67
2021/01/18 13:02:10;;;;;;;25.90;3.50;;;6.60;99.90;;;;;;5089563;28;20036;-68
2021/01/18 13:04:36;;;;;;;20.67;4.05;;;6.60;99.90;;;;;;5091712;28;20031;-68
2021/01/18 13:07:01;;;;;;;17.65;3.42;;;6.60;99.90;;;;;;5088141;28;20032;-69